createdAt,value
2018-12-13T00:00:45.531Z,1020.04
2018-12-13T00:01:55.461Z,1019.98
2018-12-13T00:03:05.202Z,1020.01
2018-12-13T00:04:15.136Z,1020.02
2018-12-13T00:05:25.078Z,1020.03
2018-12-13T00:06:34.765Z,1019.99
2018-12-13T00:07:44.719Z,1020.03
2018-12-13T00:08:54.662Z,1020.02
2018-12-13T00:10:04.595Z,1019.99
2018-12-13T00:11:14.525Z,1019.96
2018-12-13T00:12:24.464Z,1019.96
2018-12-13T00:13:34.419Z,1019.93
2018-12-13T00:14:44.105Z,1019.92
2018-12-13T00:15:53.550Z,1019.95
2018-12-13T00:17:03.493Z,1019.9
2018-12-13T00:18:13.185Z,1019.94
2018-12-13T00:19:23.115Z,1019.89
2018-12-13T00:20:33.034Z,1019.88
2018-12-13T00:21:42.981Z,1019.84
2018-12-13T00:22:52.662Z,1019.88
2018-12-13T00:24:02.615Z,1019.89
2018-12-13T00:25:12.549Z,1019.88
2018-12-13T00:26:22.485Z,1019.85
2018-12-13T00:27:32.183Z,1019.9
2018-12-13T00:28:41.868Z,1019.92
2018-12-13T00:29:51.821Z,1019.91
2018-12-13T00:31:01.509Z,1019.93
2018-12-13T00:32:11.239Z,1019.89
2018-12-13T00:33:21.178Z,1019.86
2018-12-13T00:34:31.117Z,1019.91
2018-12-13T00:35:41.041Z,1019.91
2018-12-13T00:36:50.979Z,1019.87
2018-12-13T00:38:00.666Z,1019.9
2018-12-13T00:39:10.367Z,1019.89
2018-12-13T00:40:20.322Z,1019.92
2018-12-13T00:41:30.251Z,1019.92
2018-12-13T00:42:40.185Z,1019.93
2018-12-13T00:43:50.123Z,1019.95
2018-12-13T00:45:00.061Z,1019.91
2018-12-13T00:46:10.001Z,1019.88
2018-12-13T00:47:19.977Z,1019.92
2018-12-13T00:48:29.676Z,1019.94
2018-12-13T00:49:39.609Z,1019.88
2018-12-13T00:50:49.043Z,1019.92
2018-12-13T00:51:58.987Z,1019.92
2018-12-13T00:53:08.928Z,1019.91
2018-12-13T00:54:18.909Z,1019.88
2018-12-13T00:55:28.853Z,1019.91
2018-12-13T00:56:38.789Z,1019.93
2018-12-13T00:57:48.233Z,1019.92
2018-12-13T00:58:57.922Z,1019.9
2018-12-13T01:00:07.681Z,1019.91
2018-12-13T01:01:17.384Z,1019.89
2018-12-13T01:02:27.069Z,1019.88
2018-12-13T01:03:37.021Z,1019.95
2018-12-13T01:04:46.952Z,1019.87
2018-12-13T01:05:56.894Z,1019.95
2018-12-13T01:07:06.829Z,1019.91
2018-12-13T01:08:16.509Z,1019.94
2018-12-13T01:09:26.221Z,1019.97
2018-12-13T01:10:36.639Z,1019.94
2018-12-13T01:11:46.663Z,1019.93
2018-12-13T01:12:56.605Z,1019.93
2018-12-13T01:14:06.283Z,1019.93
2018-12-13T01:15:16.218Z,1019.93
2018-12-13T01:16:26.163Z,1019.94
2018-12-13T01:17:36.109Z,1019.92
2018-12-13T01:18:45.801Z,1019.89
2018-12-13T01:19:55.478Z,1019.89
2018-12-13T01:21:05.187Z,1019.91
2018-12-13T01:22:20.996Z,1019.91
2018-12-13T01:23:30.678Z,1019.82
2018-12-13T01:24:40.354Z,1019.88
2018-12-13T01:25:50.303Z,1019.85
2018-12-13T01:26:59.989Z,1019.89
2018-12-13T01:28:09.674Z,1019.88
2018-12-13T01:29:19.622Z,1019.91
2018-12-13T01:30:29.560Z,1019.89
2018-12-13T01:31:39.240Z,1019.84
2018-12-13T01:32:49.176Z,1019.81
2018-12-13T01:33:58.861Z,1019.85
2018-12-13T01:35:08.543Z,1019.86
2018-12-13T01:36:18.242Z,1019.82
2018-12-13T01:37:27.919Z,1019.85
2018-12-13T01:38:37.886Z,1019.82
2018-12-13T01:39:47.822Z,1019.82
2018-12-13T01:40:57.261Z,1019.81
2018-12-13T01:42:06.954Z,1019.8
2018-12-13T01:43:16.646Z,1019.75
2018-12-13T01:44:26.575Z,1019.77
2018-12-13T01:45:36.261Z,1019.75
2018-12-13T01:46:46.201Z,1019.71
2018-12-13T01:47:56.135Z,1019.73
2018-12-13T01:49:06.089Z,1019.71
2018-12-13T01:50:15.766Z,1019.71
2018-12-13T01:51:25.705Z,1019.72
2018-12-13T01:52:35.645Z,1019.65
2018-12-13T01:53:45.595Z,1019.69
2018-12-13T01:54:55.530Z,1019.68
2018-12-13T01:56:05.471Z,1019.67
2018-12-13T01:57:15.479Z,1019.67
2018-12-13T01:58:24.908Z,1019.68
2018-12-13T01:59:34.857Z,1019.63
2018-12-13T02:00:44.791Z,1019.67
2018-12-13T02:01:54.734Z,1019.69
2018-12-13T02:03:04.677Z,1019.72
2018-12-13T02:04:14.622Z,1019.72
2018-12-13T02:05:24.309Z,1019.75
2018-12-13T02:06:34.238Z,1019.73
2018-12-13T02:07:44.168Z,1019.72
2018-12-13T02:08:53.846Z,1019.73
2018-12-13T02:10:03.525Z,1019.71
2018-12-13T02:11:13.460Z,1019.71
2018-12-13T02:12:23.148Z,1019.66
2018-12-13T02:13:32.840Z,1019.67
2018-12-13T02:14:42.519Z,1019.62
2018-12-13T02:15:51.950Z,1019.59
2018-12-13T02:17:01.883Z,1019.59
2018-12-13T02:18:11.567Z,1019.6
2018-12-13T02:19:21.510Z,1019.54
2018-12-13T02:20:31.215Z,1019.57
2018-12-13T02:21:41.161Z,1019.57
2018-12-13T02:22:51.105Z,1019.58
2018-12-13T02:24:01.117Z,1019.56
2018-12-13T02:25:11.055Z,1019.52
2018-12-13T02:26:20.983Z,1019.55
2018-12-13T02:27:30.921Z,1019.52
2018-12-13T02:28:40.608Z,1019.52
2018-12-13T02:29:50.044Z,1019.52
2018-12-13T02:30:59.538Z,1019.52
2018-12-13T02:32:09.488Z,1019.53
2018-12-13T02:33:19.189Z,1019.51
2018-12-13T02:34:29.133Z,1019.51
2018-12-13T02:35:39.089Z,1019.48
2018-12-13T02:36:49.031Z,1019.49
2018-12-13T02:38:06.465Z,1019.54
2018-12-13T02:39:16.421Z,1019.51
2018-12-13T02:40:26.379Z,1019.51
2018-12-13T02:41:36.328Z,1019.48
2018-12-13T02:42:46.274Z,1019.47
2018-12-13T02:43:56.210Z,1019.55
2018-12-13T02:45:06.160Z,1019.53
2018-12-13T02:46:15.359Z,1019.5
2018-12-13T02:47:25.048Z,1019.52
2018-12-13T02:48:34.976Z,1019.57
2018-12-13T02:49:44.427Z,1019.59
2018-12-13T02:50:54.123Z,1019.59
2018-12-13T02:52:04.060Z,1019.58
2018-12-13T02:53:13.775Z,1019.58
2018-12-13T02:54:23.219Z,1019.59
2018-12-13T02:55:33.161Z,1019.58
2018-12-13T02:56:43.097Z,1019.58
2018-12-13T02:57:53.029Z,1019.55
2018-12-13T02:59:02.989Z,1019.54
2018-12-13T03:00:12.947Z,1019.54
2018-12-13T03:01:22.892Z,1019.53
2018-12-13T03:02:32.579Z,1019.52
2018-12-13T03:03:42.533Z,1019.47
2018-12-13T03:04:52.489Z,1019.48
2018-12-13T03:06:02.191Z,1019.46
2018-12-13T03:07:13.853Z,1019.44
2018-12-13T03:08:24.013Z,1019.44
2018-12-13T03:09:33.954Z,1019.48
2018-12-13T03:10:43.643Z,1019.45
2018-12-13T03:11:53.580Z,1019.45
2018-12-13T03:13:03.266Z,1019.47
2018-12-13T03:14:12.954Z,1019.41
2018-12-13T03:15:22.907Z,1019.43
2018-12-13T03:16:32.862Z,1019.44
2018-12-13T03:17:42.555Z,1019.43
2018-12-13T03:18:52.510Z,1019.42
2018-12-13T03:20:02.466Z,1019.36
2018-12-13T03:21:12.162Z,1019.36
2018-12-13T03:22:22.114Z,1019.37
2018-12-13T03:23:32.050Z,1019.36
2018-12-13T03:24:41.993Z,1019.35
2018-12-13T03:25:51.682Z,1019.37
2018-12-13T03:27:01.119Z,1019.36
2018-12-13T03:28:10.863Z,1019.37
2018-12-13T03:29:20.577Z,1019.38
2018-12-13T03:30:30.263Z,1019.4
2018-12-13T03:31:40.229Z,1019.4
2018-12-13T03:32:49.945Z,1019.36
2018-12-13T03:33:59.923Z,1019.43
2018-12-13T03:35:09.631Z,1019.37
2018-12-13T03:36:19.060Z,1019.38
2018-12-13T03:37:29.022Z,1019.39
2018-12-13T03:38:38.985Z,1019.33
2018-12-13T03:39:48.664Z,1019.36
2018-12-13T03:40:58.631Z,1019.33
2018-12-13T03:42:08.593Z,1019.35
2018-12-13T03:43:17.780Z,1019.33
2018-12-13T03:44:27.468Z,1019.34
2018-12-13T03:45:37.167Z,1019.31
2018-12-13T03:46:47.108Z,1019.32
2018-12-13T03:47:57.038Z,1019.29
2018-12-13T03:49:07.025Z,1019.25
2018-12-13T03:50:16.710Z,1019.27
2018-12-13T03:51:26.653Z,1019.26
2018-12-13T03:52:36.593Z,1019.21
2018-12-13T03:53:46.549Z,1019.25
2018-12-13T03:54:55.982Z,1019.23
2018-12-13T03:56:05.936Z,1019.22
2018-12-13T03:57:15.888Z,1019.25
2018-12-13T03:58:25.829Z,1019.25
2018-12-13T03:59:35.526Z,1019.21
2018-12-13T04:00:44.965Z,1019.23
2018-12-13T04:01:54.654Z,1019.18
2018-12-13T04:03:04.587Z,1019.15
2018-12-13T04:04:14.524Z,1019.17
2018-12-13T04:05:23.957Z,1019.2
2018-12-13T04:06:33.656Z,1019.18
2018-12-13T04:07:43.583Z,1019.21
2018-12-13T04:08:53.514Z,1019.18
2018-12-13T04:10:02.941Z,1019.18
2018-12-13T04:11:12.634Z,1019.18
2018-12-13T04:12:22.637Z,1019.18
2018-12-13T04:13:32.593Z,1019.17
2018-12-13T04:14:42.301Z,1019.17
2018-12-13T04:15:51.992Z,1019.13
2018-12-13T04:17:01.937Z,1019.18
2018-12-13T04:18:11.370Z,1019.15
2018-12-13T04:19:21.306Z,1019.11
2018-12-13T04:20:31.247Z,1019.11
2018-12-13T04:21:40.945Z,1019.08
2018-12-13T04:22:50.623Z,1019.09
2018-12-13T04:24:00.075Z,1019.08
2018-12-13T04:25:09.788Z,1019.03
2018-12-13T04:26:19.741Z,1019.05
2018-12-13T04:27:29.669Z,1019.02
2018-12-13T04:28:39.616Z,1018.97
2018-12-13T04:29:49.309Z,1019.03
2018-12-13T04:30:59.244Z,1019.01
2018-12-13T04:32:08.930Z,1018.98
2018-12-13T04:33:18.883Z,1018.98
2018-12-13T04:34:28.829Z,1019
2018-12-13T04:35:38.764Z,1018.98
2018-12-13T04:36:47.964Z,1018.99
2018-12-13T04:37:57.896Z,1019.02
2018-12-13T04:39:07.870Z,1019.09
2018-12-13T04:40:17.832Z,1019.1
2018-12-13T04:41:27.770Z,1019.05
2018-12-13T04:42:37.444Z,1019.1
2018-12-13T04:43:47.417Z,1019.02
2018-12-13T04:44:56.866Z,1019.06
2018-12-13T04:46:06.558Z,1019.03
2018-12-13T04:47:16.257Z,1019.02
2018-12-13T04:48:26.231Z,1018.96
2018-12-13T04:49:36.191Z,1018.97
2018-12-13T04:50:46.133Z,1018.99
2018-12-13T04:51:55.838Z,1019.06
2018-12-13T04:53:05.796Z,1019.12
2018-12-13T04:54:15.743Z,1019.05
2018-12-13T04:55:25.442Z,1019.08
2018-12-13T04:56:35.382Z,1019.05
2018-12-13T04:57:45.314Z,1019.01
2018-12-13T04:58:55.238Z,1018.97
2018-12-13T05:00:05.170Z,1018.95
2018-12-13T05:01:15.113Z,1019.01
2018-12-13T05:02:25.054Z,1019
2018-12-13T05:03:34.992Z,1019.02
2018-12-13T05:04:44.928Z,1018.99
2018-12-13T05:14:16.071Z,1018.97
2018-12-13T05:15:25.743Z,1018.93
2018-12-13T05:16:35.682Z,1018.91
2018-12-13T05:17:45.687Z,1018.87
2018-12-13T05:18:55.373Z,1018.84
2018-12-13T05:20:05.325Z,1018.8
2018-12-13T05:21:15.009Z,1018.88
2018-12-13T05:22:25.044Z,1018.89
2018-12-13T05:23:34.984Z,1018.84
2018-12-13T05:24:44.907Z,1018.83
2018-12-13T05:25:54.595Z,1018.85
2018-12-13T05:27:04.289Z,1018.81
2018-12-13T05:28:13.972Z,1018.88
2018-12-13T05:29:23.906Z,1018.88
2018-12-13T05:30:33.389Z,1018.85
2018-12-13T05:31:43.078Z,1018.88
2018-12-13T05:32:53.014Z,1018.87
2018-12-13T05:34:02.203Z,1018.86
2018-12-13T05:35:12.138Z,1018.9
2018-12-13T05:36:22.092Z,1018.88
2018-12-13T05:37:31.777Z,1018.89
2018-12-13T05:38:41.459Z,1018.87
2018-12-13T05:39:50.898Z,1018.84
2018-12-13T05:41:00.330Z,1018.92
2018-12-13T05:42:10.254Z,1018.9
2018-12-13T05:43:20.259Z,1018.88
2018-12-13T05:44:31.158Z,1018.83
2018-12-13T05:45:41.095Z,1018.81
2018-12-13T05:46:51.035Z,1018.82
2018-12-13T05:48:00.983Z,1018.82
2018-12-13T05:49:10.726Z,1018.82
2018-12-13T05:50:20.665Z,1018.79
2018-12-13T05:51:30.610Z,1018.77
2018-12-13T05:52:40.549Z,1018.76
2018-12-13T05:53:50.263Z,1018.77
2018-12-13T05:55:00.205Z,1018.78
2018-12-13T05:56:11.406Z,1018.78
2018-12-13T05:57:21.356Z,1018.7
2018-12-13T05:58:31.298Z,1018.73
2018-12-13T05:59:41.238Z,1018.65
2018-12-13T06:00:50.931Z,1018.65
2018-12-13T06:02:02.118Z,1018.63
2018-12-13T06:03:12.070Z,1018.65
2018-12-13T06:04:21.519Z,1018.62
2018-12-13T06:05:31.464Z,1018.64
2018-12-13T06:06:41.397Z,1018.61
2018-12-13T06:07:54.761Z,1018.61
2018-12-13T06:09:05.011Z,1018.67
2018-12-13T06:10:14.997Z,1018.67
2018-12-13T06:11:24.709Z,1018.66
2018-12-13T06:12:34.663Z,1018.67
2018-12-13T06:13:44.368Z,1018.68
2018-12-13T06:14:54.314Z,1018.69
2018-12-13T06:16:04.036Z,1018.75
2018-12-13T06:17:13.967Z,1018.76
2018-12-13T06:18:23.923Z,1018.76
2018-12-13T06:19:33.352Z,1018.77
2018-12-13T06:20:43.301Z,1018.8
2018-12-13T06:21:52.739Z,1018.82
2018-12-13T06:23:02.702Z,1018.79
2018-12-13T06:24:12.648Z,1018.78
2018-12-13T06:25:22.645Z,1018.81
2018-12-13T06:26:32.374Z,1018.83
2018-12-13T06:27:42.070Z,1018.82
2018-12-13T06:28:52.082Z,1018.78
2018-12-13T06:30:07.371Z,1018.82
2018-12-13T06:31:17.520Z,1018.84
2018-12-13T06:32:27.465Z,1018.82
2018-12-13T06:33:37.412Z,1018.85
2018-12-13T06:34:46.842Z,1018.8
2018-12-13T06:35:56.842Z,1018.83
2018-12-13T06:37:06.286Z,1018.83
2018-12-13T06:38:16.230Z,1018.85
2018-12-13T06:39:26.163Z,1018.81
2018-12-13T06:40:35.606Z,1018.81
2018-12-13T06:41:45.840Z,1018.8
2018-12-13T06:42:55.774Z,1018.82
2018-12-13T06:44:05.737Z,1018.86
2018-12-13T06:45:15.455Z,1018.8
2018-12-13T06:46:25.402Z,1018.82
2018-12-13T06:47:35.088Z,1018.84
2018-12-13T06:48:45.020Z,1018.77
2018-12-13T06:49:54.717Z,1018.78
2018-12-13T06:51:04.407Z,1018.78
2018-12-13T06:52:13.845Z,1018.75
2018-12-13T06:53:23.561Z,1018.79
2018-12-13T06:54:33.563Z,1018.75
2018-12-13T06:55:43.515Z,1018.78
2018-12-13T06:56:53.214Z,1018.73
2018-12-13T06:58:03.542Z,1018.78
2018-12-13T06:59:13.504Z,1018.83
2018-12-13T07:00:23.445Z,1018.84
2018-12-13T07:01:33.383Z,1018.8
2018-12-13T07:02:43.095Z,1018.84
2018-12-13T07:03:53.035Z,1018.83
2018-12-13T07:05:02.487Z,1018.83
2018-12-13T07:06:12.179Z,1018.86
2018-12-13T07:07:21.878Z,1018.88
2018-12-13T07:08:31.841Z,1018.8
2018-12-13T07:09:41.848Z,1018.8
2018-12-13T07:10:51.536Z,1018.81
2018-12-13T07:12:01.524Z,1018.78
2018-12-13T07:13:11.201Z,1018.73
2018-12-13T07:14:21.137Z,1018.76
2018-12-13T07:15:31.082Z,1018.75
2018-12-13T07:16:41.026Z,1018.68
2018-12-13T07:17:50.978Z,1018.73
2018-12-13T07:19:00.752Z,1018.71
2018-12-13T07:20:10.214Z,1018.73
2018-12-13T07:21:20.165Z,1018.79
2018-12-13T07:22:30.317Z,1018.77
2018-12-13T07:23:40.014Z,1018.81
2018-12-13T07:24:49.965Z,1018.85
2018-12-13T07:25:59.919Z,1018.9
2018-12-13T07:27:09.878Z,1018.92
2018-12-13T07:28:19.826Z,1018.95
2018-12-13T07:29:29.801Z,1018.98
2018-12-13T07:30:39.759Z,1019
2018-12-13T07:31:49.437Z,1019
2018-12-13T07:32:58.867Z,1019.03
2018-12-13T07:34:08.794Z,1019.02
2018-12-13T07:35:17.975Z,1019.04
2018-12-13T07:36:27.684Z,1019.08
2018-12-13T07:37:37.627Z,1019.06
2018-12-13T07:38:47.343Z,1019.12
2018-12-13T07:39:58.487Z,1019.08
2018-12-13T07:41:08.181Z,1019.06
2018-12-13T07:42:18.123Z,1019.02
2018-12-13T07:43:27.572Z,1019.03
2018-12-13T07:44:37.258Z,1019.06
2018-12-13T07:45:47.190Z,1019.04
2018-12-13T07:46:57.122Z,1019.01
2018-12-13T07:48:07.047Z,1019.03
2018-12-13T07:49:16.758Z,1019.04
2018-12-13T07:50:26.444Z,1019.03
2018-12-13T07:51:35.898Z,1019.05
2018-12-13T07:52:45.346Z,1019.05
2018-12-13T07:53:55.292Z,1019.01
2018-12-13T07:55:04.991Z,1019.03
2018-12-13T07:56:14.928Z,1019.05
2018-12-13T07:57:25.119Z,1019.02
2018-12-13T07:58:34.870Z,1019.07
2018-12-13T07:59:44.814Z,1019.07
2018-12-13T08:00:54.775Z,1019.1
2018-12-13T08:02:04.468Z,1019.12
2018-12-13T08:03:14.226Z,1019.1
2018-12-13T08:04:23.910Z,1019.15
2018-12-13T08:05:33.874Z,1019.12
2018-12-13T08:06:43.633Z,1019.13
2018-12-13T08:07:53.573Z,1019.07
2018-12-13T08:09:03.304Z,1019.08
2018-12-13T08:10:12.736Z,1019.07
2018-12-13T08:11:22.670Z,1019.01
2018-12-13T08:12:32.614Z,1018.97
2018-12-13T08:13:42.559Z,1018.98
2018-12-13T08:14:52.504Z,1018.98
2018-12-13T08:16:02.467Z,1019
2018-12-13T08:17:12.408Z,1019.01
2018-12-13T08:18:22.088Z,1019.02
2018-12-13T08:19:32.042Z,1018.96
2018-12-13T08:20:42.003Z,1018.92
2018-12-13T08:21:51.960Z,1018.96
2018-12-13T08:23:01.654Z,1018.92
2018-12-13T08:24:11.503Z,1018.92
2018-12-13T08:25:21.487Z,1018.9
2018-12-13T08:26:31.432Z,1018.86
2018-12-13T08:27:41.122Z,1018.82
2018-12-13T08:28:51.065Z,1018.85
2018-12-13T08:30:01.246Z,1018.88
2018-12-13T08:31:11.212Z,1018.87
2018-12-13T08:32:20.905Z,1018.83
2018-12-13T08:33:30.591Z,1018.84
2018-12-13T08:34:40.704Z,1018.82
2018-12-13T08:35:50.640Z,1018.82
2018-12-13T08:37:00.571Z,1018.75
2018-12-13T08:38:10.529Z,1018.79
2018-12-13T08:39:20.238Z,1018.8
2018-12-13T08:40:30.181Z,1018.74
2018-12-13T08:41:39.886Z,1018.77
2018-12-13T08:42:49.827Z,1018.82
2018-12-13T08:43:59.772Z,1018.84
2018-12-13T08:45:09.479Z,1018.81
2018-12-13T08:46:18.939Z,1018.86
2018-12-13T08:47:28.896Z,1018.87
2018-12-13T08:48:38.411Z,1018.83
2018-12-13T08:49:48.148Z,1018.89
2018-12-13T08:50:58.105Z,1018.88
2018-12-13T08:52:07.826Z,1018.88
2018-12-13T08:53:17.795Z,1018.89
2018-12-13T08:54:27.794Z,1018.9
2018-12-13T08:55:37.742Z,1018.87
2018-12-13T08:56:47.454Z,1018.91
2018-12-13T08:57:56.917Z,1018.94
2018-12-13T08:59:06.891Z,1018.95
2018-12-13T09:00:16.590Z,1018.95
2018-12-13T09:01:26.468Z,1018.91
2018-12-13T09:02:36.314Z,1018.9
2018-12-13T09:03:46.345Z,1018.9
2018-12-13T09:04:56.289Z,1018.89
2018-12-13T09:06:06.243Z,1018.86
2018-12-13T09:07:16.221Z,1018.86
2018-12-13T09:08:26.207Z,1018.93
2018-12-13T09:09:41.322Z,1018.91
2018-12-13T09:10:51.057Z,1018.9
2018-12-13T09:12:01.026Z,1018.93
2018-12-13T09:13:11.001Z,1018.94
2018-12-13T09:14:20.700Z,1018.97
2018-12-13T09:15:30.430Z,1018.95
2018-12-13T09:16:40.157Z,1018.97
2018-12-13T09:17:50.100Z,1018.95
2018-12-13T09:19:00.050Z,1018.98
2018-12-13T09:20:09.801Z,1018.94
2018-12-13T09:21:19.491Z,1018.98
2018-12-13T09:22:29.450Z,1019
2018-12-13T09:23:39.401Z,1018.96
2018-12-13T09:24:49.357Z,1018.96
2018-12-13T09:25:59.326Z,1018.93
2018-12-13T09:27:09.096Z,1018.95
2018-12-13T09:28:19.665Z,1018.9
2018-12-13T09:29:29.610Z,1018.94
2018-12-13T09:30:39.557Z,1018.95
2018-12-13T09:31:49.503Z,1018.95
2018-12-13T09:32:58.957Z,1018.96
2018-12-13T09:34:08.918Z,1018.93
2018-12-13T09:35:18.880Z,1018.97
2018-12-13T09:36:28.158Z,1018.95
2018-12-13T09:37:37.871Z,1018.9
2018-12-13T09:38:52.899Z,1018.93
2018-12-13T09:40:02.881Z,1018.92
2018-12-13T09:41:12.577Z,1018.95
2018-12-13T09:42:22.272Z,1018.92
2018-12-13T09:43:32.008Z,1018.96
2018-12-13T09:44:41.452Z,1018.91
2018-12-13T09:45:51.442Z,1018.92
2018-12-13T09:47:01.377Z,1018.89
2018-12-13T09:48:11.602Z,1018.88
2018-12-13T09:49:21.562Z,1018.88
2018-12-13T09:50:31.533Z,1018.86
2018-12-13T09:51:41.481Z,1018.84
2018-12-13T09:52:51.194Z,1018.81
2018-12-13T09:54:00.893Z,1018.85
2018-12-13T09:55:11.406Z,1018.82
2018-12-13T09:56:21.115Z,1018.8
2018-12-13T09:57:31.055Z,1018.81
2018-12-13T09:58:40.766Z,1018.79
2018-12-13T09:59:50.811Z,1018.8
2018-12-13T10:01:00.511Z,1018.75
2018-12-13T10:02:10.202Z,1018.76
2018-12-13T10:03:20.162Z,1018.76
2018-12-13T10:04:29.875Z,1018.74
2018-12-13T10:05:39.600Z,1018.73
2018-12-13T10:06:49.079Z,1018.72
2018-12-13T10:07:58.796Z,1018.69
2018-12-13T10:09:08.785Z,1018.68
2018-12-13T10:10:18.547Z,1018.68
2018-12-13T10:11:28.582Z,1018.65
2018-12-13T10:12:38.528Z,1018.66
2018-12-13T10:13:48.250Z,1018.65
2018-12-13T10:14:58.224Z,1018.63
2018-12-13T10:16:07.917Z,1018.59
2018-12-13T10:17:17.634Z,1018.64
2018-12-13T10:18:27.594Z,1018.64
2018-12-13T10:19:37.556Z,1018.57
2018-12-13T10:20:47.513Z,1018.61
2018-12-13T10:21:57.204Z,1018.6
2018-12-13T10:23:12.229Z,1018.56
2018-12-13T10:24:21.891Z,1018.52
2018-12-13T10:25:31.872Z,1018.54
2018-12-13T10:26:42.102Z,1018.52
2018-12-13T10:27:51.537Z,1018.54
2018-12-13T10:29:01.244Z,1018.56
2018-12-13T10:30:11.203Z,1018.54
2018-12-13T10:31:20.879Z,1018.52
2018-12-13T10:32:30.801Z,1018.48
2018-12-13T10:33:40.506Z,1018.52
2018-12-13T10:34:50.460Z,1018.52
2018-12-13T10:36:00.948Z,1018.5
2018-12-13T10:37:10.909Z,1018.51
2018-12-13T10:38:20.877Z,1018.45
2018-12-13T10:39:30.842Z,1018.48
2018-12-13T10:40:40.802Z,1018.46
2018-12-13T10:41:50.531Z,1018.47
2018-12-13T10:43:00.543Z,1018.44
2018-12-13T10:44:10.532Z,1018.46
2018-12-13T10:45:20.413Z,1018.43
2018-12-13T10:46:30.369Z,1018.41
2018-12-13T10:47:40.353Z,1018.42
2018-12-13T10:48:50.300Z,1018.38
2018-12-13T10:50:00.019Z,1018.4
2018-12-13T10:51:09.981Z,1018.39
2018-12-13T10:52:20.226Z,1018.38
2018-12-13T10:53:29.997Z,1018.31
2018-12-13T10:54:39.951Z,1018.35
2018-12-13T10:55:49.696Z,1018.33
2018-12-13T10:56:59.175Z,1018.36
2018-12-13T10:58:09.108Z,1018.32
2018-12-13T10:59:18.595Z,1018.32
2018-12-13T11:00:28.549Z,1018.3
2018-12-13T11:01:38.041Z,1018.37
2018-12-13T11:02:48.088Z,1018.35
2018-12-13T11:03:58.124Z,1018.36
2018-12-13T11:05:07.814Z,1018.37
2018-12-13T11:06:17.521Z,1018.29
2018-12-13T11:07:26.982Z,1018.3
2018-12-13T11:08:36.919Z,1018.27
2018-12-13T11:09:46.620Z,1018.3
2018-12-13T11:10:55.845Z,1018.28
2018-12-13T11:12:05.604Z,1018.25
2018-12-13T11:13:15.041Z,1018.28
2018-12-13T11:14:24.477Z,1018.25
2018-12-13T11:15:34.426Z,1018.27
2018-12-13T11:16:45.173Z,1018.27
2018-12-13T11:17:55.166Z,1018.29
2018-12-13T11:19:05.217Z,1018.26
2018-12-13T11:20:15.300Z,1018.26
2018-12-13T11:21:25.248Z,1018.23
2018-12-13T11:22:35.217Z,1018.22
2018-12-13T11:23:44.996Z,1018.25
2018-12-13T11:24:54.772Z,1018.25
2018-12-13T11:26:04.472Z,1018.25
2018-12-13T11:27:14.401Z,1018.25
2018-12-13T11:28:24.358Z,1018.25
2018-12-13T11:29:34.367Z,1018.24
2018-12-13T11:30:44.070Z,1018.22
2018-12-13T11:31:53.767Z,1018.24
2018-12-13T11:33:03.725Z,1018.27
2018-12-13T11:34:13.411Z,1018.25
2018-12-13T11:35:23.121Z,1018.32
2018-12-13T11:36:32.836Z,1018.35
2018-12-13T11:37:42.860Z,1018.36
2018-12-13T11:38:52.328Z,1018.42
2018-12-13T11:40:08.518Z,1018.35
2018-12-13T11:41:18.458Z,1018.39
2018-12-13T11:42:28.416Z,1018.32
2018-12-13T11:43:38.361Z,1018.34
2018-12-13T11:44:48.307Z,1018.34
2018-12-13T11:45:58.321Z,1018.3
2018-12-13T11:47:08.028Z,1018.31
2018-12-13T11:48:17.966Z,1018.29
2018-12-13T11:49:27.913Z,1018.32
2018-12-13T11:50:37.607Z,1018.32
2018-12-13T11:51:47.551Z,1018.29
2018-12-13T11:52:57.496Z,1018.28
2018-12-13T11:54:07.208Z,1018.33
2018-12-13T11:55:16.675Z,1018.28
2018-12-13T11:56:26.126Z,1018.35
2018-12-13T11:57:35.850Z,1018.31
2018-12-13T11:58:46.728Z,1018.28
2018-12-13T11:59:56.482Z,1018.29
2018-12-13T12:01:06.430Z,1018.26
2018-12-13T12:02:16.380Z,1018.24
2018-12-13T12:03:31.648Z,1018.28
2018-12-13T12:04:41.604Z,1018.28
2018-12-13T12:05:51.305Z,1018.25
2018-12-13T12:07:01.016Z,1018.29
2018-12-13T12:08:10.958Z,1018.28
2018-12-13T12:09:20.897Z,1018.26
2018-12-13T12:10:30.596Z,1018.24
2018-12-13T12:11:40.288Z,1018.25
2018-12-13T12:12:50.446Z,1018.25
2018-12-13T12:13:59.898Z,1018.21
2018-12-13T12:15:09.597Z,1018.24
2018-12-13T12:16:19.290Z,1018.19
2018-12-13T12:17:29.240Z,1018.23
2018-12-13T12:18:38.941Z,1018.25
2018-12-13T12:19:48.881Z,1018.21
2018-12-13T12:20:58.858Z,1018.21
2018-12-13T12:22:08.566Z,1018.24
2018-12-13T12:23:18.521Z,1018.19
2018-12-13T12:24:28.472Z,1018.21
2018-12-13T12:25:38.437Z,1018.17
2018-12-13T12:26:47.904Z,1018.16
2018-12-13T12:27:57.874Z,1018.15
2018-12-13T12:29:07.832Z,1018.15
2018-12-13T12:30:17.545Z,1018.15
2018-12-13T12:31:27.682Z,1018.15
2018-12-13T12:32:38.108Z,1018.14
2018-12-13T12:33:47.813Z,1018.14
2018-12-13T12:34:57.752Z,1018.21
2018-12-13T12:36:07.709Z,1018.14
2018-12-13T12:37:17.668Z,1018.17
2018-12-13T12:38:27.426Z,1018.16
2018-12-13T12:39:37.072Z,1018.15
2018-12-13T12:40:47.027Z,1018.14
2018-12-13T12:41:56.791Z,1018.16
2018-12-13T12:43:07.334Z,1018.09
2018-12-13T12:44:17.285Z,1018.1
2018-12-13T12:45:26.998Z,1018.14
2018-12-13T12:46:36.951Z,1018.12
2018-12-13T12:47:46.399Z,1018.15
2018-12-13T12:48:56.103Z,1018.1
2018-12-13T12:50:05.545Z,1018.09
2018-12-13T12:51:15.494Z,1018.09
2018-12-13T12:52:25.464Z,1018.05
2018-12-13T12:53:35.399Z,1018.01
2018-12-13T12:54:45.090Z,1018
2018-12-13T12:55:55.091Z,1018.04
2018-12-13T12:57:04.882Z,1017.96
2018-12-13T12:58:14.589Z,1018.01
2018-12-13T12:59:24.538Z,1017.99
2018-12-13T13:00:34.493Z,1018
2018-12-13T13:01:44.189Z,1017.99
2018-12-13T13:02:53.900Z,1017.97
2018-12-13T13:04:03.851Z,1017.99
2018-12-13T13:05:13.807Z,1017.99
2018-12-13T13:06:23.496Z,1017.97
2018-12-13T13:07:32.949Z,1017.91
2018-12-13T13:08:42.891Z,1017.96
2018-12-13T13:09:52.846Z,1017.97
2018-12-13T13:11:02.579Z,1017.96
2018-12-13T13:12:12.519Z,1017.95
2018-12-13T13:13:21.979Z,1017.92
2018-12-13T13:14:33.385Z,1017.9
2018-12-13T13:15:43.328Z,1017.93
2018-12-13T13:16:53.014Z,1017.91
2018-12-13T13:18:02.714Z,1017.94
2018-12-13T13:19:11.913Z,1017.91
2018-12-13T13:20:21.601Z,1017.89
2018-12-13T13:21:31.316Z,1017.89
2018-12-13T13:22:41.027Z,1017.89
2018-12-13T13:23:50.463Z,1017.89
2018-12-13T13:25:00.394Z,1017.89
2018-12-13T13:26:10.107Z,1017.89
2018-12-13T13:27:20.054Z,1017.9
2018-12-13T13:28:29.728Z,1017.91
2018-12-13T13:29:39.169Z,1017.9
2018-12-13T13:30:49.118Z,1017.89
2018-12-13T13:31:58.831Z,1017.9
2018-12-13T13:33:08.847Z,1017.89
2018-12-13T13:34:18.550Z,1017.86
2018-12-13T13:35:28.521Z,1017.9
2018-12-13T13:36:37.977Z,1017.88
2018-12-13T13:37:47.668Z,1017.91
2018-12-13T13:38:57.629Z,1017.92
2018-12-13T13:40:07.581Z,1017.94
2018-12-13T13:41:17.266Z,1017.96
2018-12-13T13:42:26.721Z,1017.94
2018-12-13T13:43:37.021Z,1017.98
2018-12-13T13:44:46.973Z,1017.96
2018-12-13T13:45:56.930Z,1017.95
2018-12-13T13:47:06.656Z,1017.96
2018-12-13T13:48:16.606Z,1017.97
2018-12-13T13:49:26.556Z,1017.95
2018-12-13T13:50:36.479Z,1017.99
2018-12-13T13:51:46.428Z,1017.99
2018-12-13T13:52:56.407Z,1018.03
2018-12-13T13:54:06.107Z,1018.04
2018-12-13T13:55:15.810Z,1018.04
2018-12-13T13:56:25.492Z,1018.04
2018-12-13T13:57:35.203Z,1018.02
2018-12-13T13:58:44.901Z,1018.04
2018-12-13T13:59:54.638Z,1018.04
2018-12-13T14:01:04.387Z,1018.01
2018-12-13T14:02:14.342Z,1018.03
2018-12-13T14:03:24.419Z,1018.03
2018-12-13T14:04:34.375Z,1018.05
2018-12-13T14:05:44.087Z,1018.05
2018-12-13T14:06:55.180Z,1018.04
2018-12-13T14:08:04.983Z,1018.09
2018-12-13T14:09:14.927Z,1018.04
2018-12-13T14:10:24.861Z,1018.06
2018-12-13T14:11:34.809Z,1018
2018-12-13T14:12:44.837Z,1018.03
2018-12-13T14:13:54.542Z,1018.04
2018-12-13T14:15:04.249Z,1018.04
2018-12-13T14:16:14.208Z,1018.02
2018-12-13T14:17:24.159Z,1018.03